sensor_id;sensor_type;location;lat;lon;timestamp;P1;durP1;ratioP1;P2;durP2;ratioP2
20713;SDS011;10518;50.742;4.226;2022-12-18T00:02:21;4.03;;;2.27;;
20713;SDS011;10518;50.742;4.226;2022-12-18T00:04:47;3.93;;;2.90;;
20713;SDS011;10518;50.742;4.226;2022-12-18T00:07:12;3.87;;;1.87;;
20713;SDS011;10518;50.742;4.226;2022-12-18T00:09:38;2.83;;;1.67;;
20713;SDS011;10518;50.742;4.226;2022-12-18T00:12:03;4.00;;;3.00;;
20713;SDS011;10518;50.742;4.226;2022-12-18T00:14:29;3.67;;;2.30;;
20713;SDS011;10518;50.742;4.226;2022-12-18T00:16:55;6.00;;;3.13;;
20713;SDS011;10518;50.742;4.226;2022-12-18T00:19:20;3.33;;;2.87;;
20713;SDS011;10518;50.742;4.226;2022-12-18T00:21:46;2.10;;;2.00;;
20713;SDS011;10518;50.742;4.226;2022-12-18T00:24:11;5.03;;;2.53;;
20713;SDS011;10518;50.742;4.226;2022-12-18T00:26:37;2.97;;;1.53;;
20713;SDS011;10518;50.742;4.226;2022-12-18T00:29:09;3.90;;;2.00;;
20713;SDS011;10518;50.742;4.226;2022-12-18T00:31:38;1.90;;;1.73;;
20713;SDS011;10518;50.742;4.226;2022-12-18T00:34:04;2.77;;;2.50;;
20713;SDS011;10518;50.742;4.226;2022-12-18T00:36:31;4.00;;;2.83;;
20713;SDS011;10518;50.742;4.226;2022-12-18T00:38:59;2.80;;;2.60;;
20713;SDS011;10518;50.742;4.226;2022-12-18T00:41:26;4.60;;;2.43;;
20713;SDS011;10518;50.742;4.226;2022-12-18T00:44:11;2.13;;;2.03;;
20713;SDS011;10518;50.742;4.226;2022-12-18T00:46:38;9.37;;;3.37;;
20713;SDS011;10518;50.742;4.226;2022-12-18T00:49:05;2.23;;;2.13;;
20713;SDS011;10518;50.742;4.226;2022-12-18T00:51:30;2.30;;;2.10;;
20713;SDS011;10518;50.742;4.226;2022-12-18T00:53:56;3.47;;;3.20;;
20713;SDS011;10518;50.742;4.226;2022-12-18T00:56:22;11.70;;;2.70;;
20713;SDS011;10518;50.742;4.226;2022-12-18T00:58:48;5.07;;;2.60;;
20713;SDS011;10518;50.742;4.226;2022-12-18T01:01:14;3.83;;;1.80;;
20713;SDS011;10518;50.742;4.226;2022-12-18T01:03:39;2.57;;;2.03;;
20713;SDS011;10518;50.742;4.226;2022-12-18T01:06:09;1.57;;;1.47;;
20713;SDS011;10518;50.742;4.226;2022-12-18T01:08:36;3.07;;;2.50;;
20713;SDS011;10518;50.742;4.226;2022-12-18T01:11:07;2.27;;;1.97;;
20713;SDS011;10518;50.742;4.226;2022-12-18T01:13:34;3.57;;;2.17;;
20713;SDS011;10518;50.742;4.226;2022-12-18T01:16:00;1.47;;;1.37;;
20713;SDS011;10518;50.742;4.226;2022-12-18T01:18:25;4.03;;;2.47;;
20713;SDS011;10518;50.742;4.226;2022-12-18T01:20:51;8.63;;;3.43;;
20713;SDS011;10518;50.742;4.226;2022-12-18T01:23:16;1.53;;;1.43;;
20713;SDS011;10518;50.742;4.226;2022-12-18T01:25:42;2.07;;;1.87;;
20713;SDS011;10518;50.742;4.226;2022-12-18T01:28:07;2.00;;;1.40;;
20713;SDS011;10518;50.742;4.226;2022-12-18T01:30:33;3.00;;;1.80;;
20713;SDS011;10518;50.742;4.226;2022-12-18T01:32:59;3.40;;;1.83;;
20713;SDS011;10518;50.742;4.226;2022-12-18T01:35:24;2.00;;;1.33;;
20713;SDS011;10518;50.742;4.226;2022-12-18T01:37:53;1.20;;;1.10;;
20713;SDS011;10518;50.742;4.226;2022-12-18T01:40:20;4.73;;;1.70;;
20713;SDS011;10518;50.742;4.226;2022-12-18T01:42:50;8.00;;;2.40;;
20713;SDS011;10518;50.742;4.226;2022-12-18T01:45:23;1.33;;;1.23;;
20713;SDS011;10518;50.742;4.226;2022-12-18T01:47:52;1.73;;;1.63;;
20713;SDS011;10518;50.742;4.226;2022-12-18T01:53:14;4.90;;;1.97;;
20713;SDS011;10518;50.742;4.226;2022-12-18T01:55:45;2.30;;;1.47;;
20713;SDS011;10518;50.742;4.226;2022-12-18T01:58:16;1.37;;;1.27;;
20713;SDS011;10518;50.742;4.226;2022-12-18T02:00:43;4.53;;;2.97;;
20713;SDS011;10518;50.742;4.226;2022-12-18T02:03:09;3.33;;;2.27;;
20713;SDS011;10518;50.742;4.226;2022-12-18T02:05:53;5.87;;;2.40;;
20713;SDS011;10518;50.742;4.226;2022-12-18T02:08:38;5.90;;;2.50;;
20713;SDS011;10518;50.742;4.226;2022-12-18T02:14:28;2.00;;;1.73;;
20713;SDS011;10518;50.742;4.226;2022-12-18T02:17:12;1.87;;;1.77;;
20713;SDS011;10518;50.742;4.226;2022-12-18T02:28:00;1.30;;;1.20;;
20713;SDS011;10518;50.742;4.226;2022-12-18T02:30:29;2.07;;;1.90;;
20713;SDS011;10518;50.742;4.226;2022-12-18T02:32:59;0.83;;;0.83;;
20713;SDS011;10518;50.742;4.226;2022-12-18T02:35:27;2.07;;;1.87;;
20713;SDS011;10518;50.742;4.226;2022-12-18T02:37:55;8.27;;;1.23;;
20713;SDS011;10518;50.742;4.226;2022-12-18T02:40:21;1.90;;;1.80;;
20713;SDS011;10518;50.742;4.226;2022-12-18T02:42:49;1.97;;;1.43;;
20713;SDS011;10518;50.742;4.226;2022-12-18T02:45:15;1.27;;;1.17;;
20713;SDS011;10518;50.742;4.226;2022-12-18T02:47:42;2.37;;;1.47;;
20713;SDS011;10518;50.742;4.226;2022-12-18T02:50:17;1.73;;;1.63;;
20713;SDS011;10518;50.742;4.226;2022-12-18T02:53:10;1.80;;;1.70;;
20713;SDS011;10518;50.742;4.226;2022-12-18T02:58:24;3.63;;;1.63;;
20713;SDS011;10518;50.742;4.226;2022-12-18T03:01:23;1.43;;;1.33;;
20713;SDS011;10518;50.742;4.226;2022-12-18T03:04:07;2.13;;;1.90;;
20713;SDS011;10518;50.742;4.226;2022-12-18T03:06:41;5.03;;;2.00;;
20713;SDS011;10518;50.742;4.226;2022-12-18T03:09:13;1.90;;;1.43;;
20713;SDS011;10518;50.742;4.226;2022-12-18T03:11:45;1.30;;;1.20;;
20713;SDS011;10518;50.742;4.226;2022-12-18T03:14:34;1.97;;;1.03;;
20713;SDS011;10518;50.742;4.226;2022-12-18T03:17:03;0.80;;;0.80;;
20713;SDS011;10518;50.742;4.226;2022-12-18T03:19:32;2.40;;;1.57;;
20713;SDS011;10518;50.742;4.226;2022-12-18T03:21:58;4.13;;;2.60;;
20713;SDS011;10518;50.742;4.226;2022-12-18T03:24:27;1.90;;;1.70;;
20713;SDS011;10518;50.742;4.226;2022-12-18T03:26:55;1.83;;;1.73;;
20713;SDS011;10518;50.742;4.226;2022-12-18T03:29:26;1.03;;;1.03;;
20713;SDS011;10518;50.742;4.226;2022-12-18T03:32:10;3.20;;;1.60;;
20713;SDS011;10518;50.742;4.226;2022-12-18T03:34:40;2.70;;;1.87;;
20713;SDS011;10518;50.742;4.226;2022-12-18T03:37:08;1.73;;;1.43;;
20713;SDS011;10518;50.742;4.226;2022-12-18T03:39:35;1.40;;;1.30;;
20713;SDS011;10518;50.742;4.226;2022-12-18T03:42:03;2.63;;;2.33;;
20713;SDS011;10518;50.742;4.226;2022-12-18T03:44:44;1.50;;;1.40;;
20713;SDS011;10518;50.742;4.226;2022-12-18T03:47:15;0.97;;;0.97;;
20713;SDS011;10518;50.742;4.226;2022-12-18T03:52:54;4.10;;;1.40;;
20713;SDS011;10518;50.742;4.226;2022-12-18T03:55:26;2.20;;;1.60;;
20713;SDS011;10518;50.742;4.226;2022-12-18T03:57:54;0.90;;;0.90;;
20713;SDS011;10518;50.742;4.226;2022-12-18T04:00:21;1.40;;;1.23;;
20713;SDS011;10518;50.742;4.226;2022-12-18T04:02:48;1.33;;;1.13;;
20713;SDS011;10518;50.742;4.226;2022-12-18T04:05:18;2.07;;;1.77;;
20713;SDS011;10518;50.742;4.226;2022-12-18T04:07:46;8.03;;;1.23;;
20713;SDS011;10518;50.742;4.226;2022-12-18T04:10:14;1.50;;;1.40;;
20713;SDS011;10518;50.742;4.226;2022-12-18T04:12:43;8.13;;;2.00;;
20713;SDS011;10518;50.742;4.226;2022-12-18T04:15:09;1.53;;;1.30;;
20713;SDS011;10518;50.742;4.226;2022-12-18T04:17:35;0.70;;;0.70;;
20713;SDS011;10518;50.742;4.226;2022-12-18T04:20:02;1.17;;;1.17;;
20713;SDS011;10518;50.742;4.226;2022-12-18T04:22:28;3.13;;;1.67;;
20713;SDS011;10518;50.742;4.226;2022-12-18T04:24:54;1.33;;;1.23;;
20713;SDS011;10518;50.742;4.226;2022-12-18T04:27:19;1.93;;;1.80;;
20713;SDS011;10518;50.742;4.226;2022-12-18T04:29:45;1.97;;;1.40;;
20713;SDS011;10518;50.742;4.226;2022-12-18T04:32:10;1.60;;;1.10;;
20713;SDS011;10518;50.742;4.226;2022-12-18T04:34:36;1.00;;;1.00;;
20713;SDS011;10518;50.742;4.226;2022-12-18T04:37:02;0.83;;;0.83;;
20713;SDS011;10518;50.742;4.226;2022-12-18T04:39:27;1.63;;;1.53;;
20713;SDS011;10518;50.742;4.226;2022-12-18T04:41:53;1.53;;;1.37;;
20713;SDS011;10518;50.742;4.226;2022-12-18T04:44:18;1.13;;;1.00;;
20713;SDS011;10518;50.742;4.226;2022-12-18T04:46:44;1.83;;;1.00;;
20713;SDS011;10518;50.742;4.226;2022-12-18T04:49:09;1.00;;;1.00;;
20713;SDS011;10518;50.742;4.226;2022-12-18T04:51:38;3.33;;;1.47;;
20713;SDS011;10518;50.742;4.226;2022-12-18T04:54:03;1.60;;;1.50;;
20713;SDS011;10518;50.742;4.226;2022-12-18T04:56:30;2.53;;;1.47;;
20713;SDS011;10518;50.742;4.226;2022-12-18T04:58:56;0.87;;;0.87;;
20713;SDS011;10518;50.742;4.226;2022-12-18T05:01:22;1.30;;;1.30;;
20713;SDS011;10518;50.742;4.226;2022-12-18T05:03:47;3.43;;;2.13;;
20713;SDS011;10518;50.742;4.226;2022-12-18T05:06:13;0.80;;;0.80;;
20713;SDS011;10518;50.742;4.226;2022-12-18T05:08:39;1.97;;;1.47;;
20713;SDS011;10518;50.742;4.226;2022-12-18T05:11:09;2.97;;;1.87;;
20713;SDS011;10518;50.742;4.226;2022-12-18T05:13:40;0.93;;;0.93;;
20713;SDS011;10518;50.742;4.226;2022-12-18T05:16:06;1.10;;;1.07;;
20713;SDS011;10518;50.742;4.226;2022-12-18T05:18:32;1.80;;;1.07;;
20713;SDS011;10518;50.742;4.226;2022-12-18T05:20:58;5.00;;;1.73;;
20713;SDS011;10518;50.742;4.226;2022-12-18T05:23:24;0.57;;;0.57;;
20713;SDS011;10518;50.742;4.226;2022-12-18T05:25:57;1.47;;;1.10;;
20713;SDS011;10518;50.742;4.226;2022-12-18T05:28:24;1.00;;;0.93;;
20713;SDS011;10518;50.742;4.226;2022-12-18T05:30:52;1.53;;;0.80;;
20713;SDS011;10518;50.742;4.226;2022-12-18T05:33:20;1.63;;;1.53;;
20713;SDS011;10518;50.742;4.226;2022-12-18T05:35:50;3.47;;;1.40;;
20713;SDS011;10518;50.742;4.226;2022-12-18T05:38:17;1.70;;;1.37;;
20713;SDS011;10518;50.742;4.226;2022-12-18T05:40:43;0.60;;;0.60;;
20713;SDS011;10518;50.742;4.226;2022-12-18T05:43:09;4.23;;;1.80;;
20713;SDS011;10518;50.742;4.226;2022-12-18T05:45:38;2.10;;;1.17;;
20713;SDS011;10518;50.742;4.226;2022-12-18T05:48:04;2.33;;;1.23;;
20713;SDS011;10518;50.742;4.226;2022-12-18T05:50:33;4.63;;;1.23;;
20713;SDS011;10518;50.742;4.226;2022-12-18T05:53:03;1.40;;;0.93;;
20713;SDS011;10518;50.742;4.226;2022-12-18T05:55:29;1.43;;;1.33;;
20713;SDS011;10518;50.742;4.226;2022-12-18T05:57:57;3.80;;;1.20;;
20713;SDS011;10518;50.742;4.226;2022-12-18T06:00:23;1.13;;;0.97;;
20713;SDS011;10518;50.742;4.226;2022-12-18T06:02:48;2.73;;;1.77;;
20713;SDS011;10518;50.742;4.226;2022-12-18T06:05:14;2.53;;;1.43;;
20713;SDS011;10518;50.742;4.226;2022-12-18T06:07:39;1.83;;;1.70;;
20713;SDS011;10518;50.742;4.226;2022-12-18T06:10:05;2.47;;;1.70;;
20713;SDS011;10518;50.742;4.226;2022-12-18T06:12:31;2.10;;;1.90;;
20713;SDS011;10518;50.742;4.226;2022-12-18T06:14:58;2.80;;;1.07;;
20713;SDS011;10518;50.742;4.226;2022-12-18T06:17:27;1.53;;;1.10;;
20713;SDS011;10518;50.742;4.226;2022-12-18T06:19:54;2.00;;;1.73;;
20713;SDS011;10518;50.742;4.226;2022-12-18T06:22:20;0.80;;;0.80;;
20713;SDS011;10518;50.742;4.226;2022-12-18T06:24:45;2.53;;;1.53;;
20713;SDS011;10518;50.742;4.226;2022-12-18T06:27:11;1.70;;;1.43;;
20713;SDS011;10518;50.742;4.226;2022-12-18T06:29:36;1.07;;;1.07;;
20713;SDS011;10518;50.742;4.226;2022-12-18T06:32:02;1.00;;;1.00;;
20713;SDS011;10518;50.742;4.226;2022-12-18T06:34:28;0.90;;;0.90;;
20713;SDS011;10518;50.742;4.226;2022-12-18T06:36:53;0.93;;;0.93;;
20713;SDS011;10518;50.742;4.226;2022-12-18T06:39:19;2.40;;;2.23;;
20713;SDS011;10518;50.742;4.226;2022-12-18T06:41:44;1.50;;;1.23;;
20713;SDS011;10518;50.742;4.226;2022-12-18T06:44:10;1.40;;;1.30;;
20713;SDS011;10518;50.742;4.226;2022-12-18T06:46:36;1.33;;;1.23;;
20713;SDS011;10518;50.742;4.226;2022-12-18T06:49:02;1.20;;;1.20;;
20713;SDS011;10518;50.742;4.226;2022-12-18T06:51:28;1.03;;;1.00;;
20713;SDS011;10518;50.742;4.226;2022-12-18T06:53:54;0.60;;;0.60;;
20713;SDS011;10518;50.742;4.226;2022-12-18T06:56:19;1.07;;;1.07;;
20713;SDS011;10518;50.742;4.226;2022-12-18T06:58:45;1.90;;;1.10;;
20713;SDS011;10518;50.742;4.226;2022-12-18T07:01:11;1.97;;;1.57;;
20713;SDS011;10518;50.742;4.226;2022-12-18T07:03:38;0.97;;;0.97;;
20713;SDS011;10518;50.742;4.226;2022-12-18T07:06:04;1.33;;;1.10;;
20713;SDS011;10518;50.742;4.226;2022-12-18T07:08:31;1.13;;;0.93;;
20713;SDS011;10518;50.742;4.226;2022-12-18T07:10:57;1.90;;;0.73;;
20713;SDS011;10518;50.742;4.226;2022-12-18T07:13:23;1.30;;;1.20;;
20713;SDS011;10518;50.742;4.226;2022-12-18T07:15:48;1.47;;;0.90;;
20713;SDS011;10518;50.742;4.226;2022-12-18T07:18:14;5.07;;;1.33;;
20713;SDS011;10518;50.742;4.226;2022-12-18T07:20:40;2.43;;;1.13;;
20713;SDS011;10518;50.742;4.226;2022-12-18T07:23:05;3.63;;;1.10;;
20713;SDS011;10518;50.742;4.226;2022-12-18T07:25:34;0.90;;;0.90;;
20713;SDS011;10518;50.742;4.226;2022-12-18T07:28:00;0.67;;;0.67;;
20713;SDS011;10518;50.742;4.226;2022-12-18T07:30:26;2.87;;;2.20;;
20713;SDS011;10518;50.742;4.226;2022-12-18T07:32:52;1.43;;;1.33;;
20713;SDS011;10518;50.742;4.226;2022-12-18T07:35:17;0.67;;;0.67;;
20713;SDS011;10518;50.742;4.226;2022-12-18T07:37:43;1.03;;;0.63;;
20713;SDS011;10518;50.742;4.226;2022-12-18T07:40:09;0.90;;;0.90;;
20713;SDS011;10518;50.742;4.226;2022-12-18T07:42:35;1.43;;;1.43;;
20713;SDS011;10518;50.742;4.226;2022-12-18T07:45:02;1.00;;;0.80;;
20713;SDS011;10518;50.742;4.226;2022-12-18T07:47:28;1.63;;;1.53;;
20713;SDS011;10518;50.742;4.226;2022-12-18T07:49:54;0.73;;;0.73;;
20713;SDS011;10518;50.742;4.226;2022-12-18T07:52:20;0.87;;;0.80;;
20713;SDS011;10518;50.742;4.226;2022-12-18T07:54:45;2.43;;;1.60;;
20713;SDS011;10518;50.742;4.226;2022-12-18T07:57:13;1.27;;;0.93;;
20713;SDS011;10518;50.742;4.226;2022-12-18T07:59:39;0.83;;;0.83;;
20713;SDS011;10518;50.742;4.226;2022-12-18T08:02:05;0.90;;;0.90;;
20713;SDS011;10518;50.742;4.226;2022-12-18T08:04:31;0.73;;;0.73;;
20713;SDS011;10518;50.742;4.226;2022-12-18T08:06:56;0.50;;;0.50;;
20713;SDS011;10518;50.742;4.226;2022-12-18T08:09:22;1.50;;;1.03;;
20713;SDS011;10518;50.742;4.226;2022-12-18T08:11:47;0.77;;;0.77;;
20713;SDS011;10518;50.742;4.226;2022-12-18T08:14:13;1.43;;;1.30;;
20713;SDS011;10518;50.742;4.226;2022-12-18T08:16:39;0.77;;;0.77;;
20713;SDS011;10518;50.742;4.226;2022-12-18T08:19:05;0.97;;;0.97;;
20713;SDS011;10518;50.742;4.226;2022-12-18T08:21:31;1.10;;;1.07;;
20713;SDS011;10518;50.742;4.226;2022-12-18T08:23:57;0.60;;;0.60;;
20713;SDS011;10518;50.742;4.226;2022-12-18T08:26:25;1.07;;;1.03;;
20713;SDS011;10518;50.742;4.226;2022-12-18T08:28:53;1.43;;;1.33;;
20713;SDS011;10518;50.742;4.226;2022-12-18T08:31:22;1.40;;;1.00;;
20713;SDS011;10518;50.742;4.226;2022-12-18T08:33:49;0.80;;;0.80;;
20713;SDS011;10518;50.742;4.226;2022-12-18T08:36:16;4.60;;;1.60;;
20713;SDS011;10518;50.742;4.226;2022-12-18T08:38:42;1.00;;;1.00;;
20713;SDS011;10518;50.742;4.226;2022-12-18T08:41:09;4.20;;;1.07;;
20713;SDS011;10518;50.742;4.226;2022-12-18T08:43:36;1.40;;;0.97;;
20713;SDS011;10518;50.742;4.226;2022-12-18T08:46:20;2.30;;;1.37;;
20713;SDS011;10518;50.742;4.226;2022-12-18T08:48:47;0.70;;;0.70;;
20713;SDS011;10518;50.742;4.226;2022-12-18T08:51:15;2.20;;;1.10;;
20713;SDS011;10518;50.742;4.226;2022-12-18T08:53:41;1.13;;;1.07;;
20713;SDS011;10518;50.742;4.226;2022-12-18T08:56:07;1.37;;;1.07;;
20713;SDS011;10518;50.742;4.226;2022-12-18T08:58:33;1.73;;;1.23;;
20713;SDS011;10518;50.742;4.226;2022-12-18T09:01:02;2.83;;;0.83;;
20713;SDS011;10518;50.742;4.226;2022-12-18T09:03:30;0.93;;;0.93;;
20713;SDS011;10518;50.742;4.226;2022-12-18T09:05:56;5.13;;;1.93;;
20713;SDS011;10518;50.742;4.226;2022-12-18T09:08:21;1.53;;;1.30;;
20713;SDS011;10518;50.742;4.226;2022-12-18T09:10:48;0.97;;;0.97;;
20713;SDS011;10518;50.742;4.226;2022-12-18T09:13:14;2.30;;;1.10;;
20713;SDS011;10518;50.742;4.226;2022-12-18T09:15:48;1.63;;;1.17;;
20713;SDS011;10518;50.742;4.226;2022-12-18T09:18:15;1.00;;;1.00;;
20713;SDS011;10518;50.742;4.226;2022-12-18T09:20:42;0.63;;;0.63;;
20713;SDS011;10518;50.742;4.226;2022-12-18T09:23:08;1.53;;;0.93;;
20713;SDS011;10518;50.742;4.226;2022-12-18T09:25:34;1.50;;;1.40;;
20713;SDS011;10518;50.742;4.226;2022-12-18T09:28:05;2.00;;;1.53;;
20713;SDS011;10518;50.742;4.226;2022-12-18T09:30:41;1.90;;;1.17;;
20713;SDS011;10518;50.742;4.226;2022-12-18T09:33:09;2.50;;;2.07;;
20713;SDS011;10518;50.742;4.226;2022-12-18T09:35:38;1.70;;;1.40;;
20713;SDS011;10518;50.742;4.226;2022-12-18T09:38:05;0.97;;;0.90;;
20713;SDS011;10518;50.742;4.226;2022-12-18T09:40:34;2.83;;;1.33;;
20713;SDS011;10518;50.742;4.226;2022-12-18T09:43:03;1.23;;;0.80;;
20713;SDS011;10518;50.742;4.226;2022-12-18T09:45:38;1.30;;;1.17;;
20713;SDS011;10518;50.742;4.226;2022-12-18T09:48:15;1.50;;;1.40;;
20713;SDS011;10518;50.742;4.226;2022-12-18T09:50:48;2.10;;;1.27;;
20713;SDS011;10518;50.742;4.226;2022-12-18T09:53:19;0.60;;;0.60;;
20713;SDS011;10518;50.742;4.226;2022-12-18T09:55:49;2.17;;;0.93;;
20713;SDS011;10518;50.742;4.226;2022-12-18T10:01:10;5.83;;;1.07;;
20713;SDS011;10518;50.742;4.226;2022-12-18T10:03:37;1.57;;;1.47;;
20713;SDS011;10518;50.742;4.226;2022-12-18T10:06:13;4.07;;;1.70;;
20713;SDS011;10518;50.742;4.226;2022-12-18T10:22:41;2.20;;;1.53;;
20713;SDS011;10518;50.742;4.226;2022-12-18T10:25:24;3.53;;;1.57;;
20713;SDS011;10518;50.742;4.226;2022-12-18T10:28:06;0.77;;;0.73;;
20713;SDS011;10518;50.742;4.226;2022-12-18T10:30:38;5.60;;;2.07;;
20713;SDS011;10518;50.742;4.226;2022-12-18T10:33:04;1.83;;;1.00;;
20713;SDS011;10518;50.742;4.226;2022-12-18T10:35:30;1.73;;;1.33;;
20713;SDS011;10518;50.742;4.226;2022-12-18T10:38:06;1.47;;;1.30;;
20713;SDS011;10518;50.742;4.226;2022-12-18T10:40:32;1.77;;;1.57;;
20713;SDS011;10518;50.742;4.226;2022-12-18T10:43:35;1.20;;;0.93;;
20713;SDS011;10518;50.742;4.226;2022-12-18T10:51:16;1.47;;;1.37;;
20713;SDS011;10518;50.742;4.226;2022-12-18T10:54:02;3.43;;;2.10;;
20713;SDS011;10518;50.742;4.226;2022-12-18T10:56:31;5.70;;;1.90;;
20713;SDS011;10518;50.742;4.226;2022-12-18T10:59:00;5.10;;;2.10;;
20713;SDS011;10518;50.742;4.226;2022-12-18T11:01:44;1.17;;;1.03;;
20713;SDS011;10518;50.742;4.226;2022-12-18T11:04:13;5.87;;;2.23;;
20713;SDS011;10518;50.742;4.226;2022-12-18T11:06:56;1.77;;;1.60;;
20713;SDS011;10518;50.742;4.226;2022-12-18T11:09:30;2.37;;;1.87;;
20713;SDS011;10518;50.742;4.226;2022-12-18T11:11:58;4.23;;;2.43;;
20713;SDS011;10518;50.742;4.226;2022-12-18T11:14:42;2.10;;;1.70;;
20713;SDS011;10518;50.742;4.226;2022-12-18T11:17:21;2.03;;;1.83;;
20713;SDS011;10518;50.742;4.226;2022-12-18T11:19:53;2.97;;;1.80;;
20713;SDS011;10518;50.742;4.226;2022-12-18T11:22:24;3.40;;;1.50;;
20713;SDS011;10518;50.742;4.226;2022-12-18T11:27:36;2.07;;;1.83;;
20713;SDS011;10518;50.742;4.226;2022-12-18T11:30:15;2.63;;;1.43;;
20713;SDS011;10518;50.742;4.226;2022-12-18T11:32:47;3.23;;;2.37;;
20713;SDS011;10518;50.742;4.226;2022-12-18T11:37:51;1.13;;;0.90;;
20713;SDS011;10518;50.742;4.226;2022-12-18T11:40:29;6.13;;;2.50;;
20713;SDS011;10518;50.742;4.226;2022-12-18T11:43:05;5.93;;;1.80;;
20713;SDS011;10518;50.742;4.226;2022-12-18T11:45:43;9.97;;;2.67;;
20713;SDS011;10518;50.742;4.226;2022-12-18T11:48:28;3.80;;;1.60;;
20713;SDS011;10518;50.742;4.226;2022-12-18T11:50:58;3.07;;;2.07;;
20713;SDS011;10518;50.742;4.226;2022-12-18T11:53:28;5.60;;;1.93;;
20713;SDS011;10518;50.742;4.226;2022-12-18T11:58:42;6.90;;;1.63;;
20713;SDS011;10518;50.742;4.226;2022-12-18T12:24:24;2.57;;;1.87;;
20713;SDS011;10518;50.742;4.226;2022-12-18T12:26:58;2.10;;;1.87;;
20713;SDS011;10518;50.742;4.226;2022-12-18T12:30:05;1.80;;;1.70;;
20713;SDS011;10518;50.742;4.226;2022-12-18T12:35:52;2.90;;;1.93;;
20713;SDS011;10518;50.742;4.226;2022-12-18T12:38:40;5.33;;;1.97;;
20713;SDS011;10518;50.742;4.226;2022-12-18T12:41:09;1.27;;;1.17;;
20713;SDS011;10518;50.742;4.226;2022-12-18T12:44:03;3.03;;;2.40;;
20713;SDS011;10518;50.742;4.226;2022-12-18T12:46:34;2.83;;;1.83;;
20713;SDS011;10518;50.742;4.226;2022-12-18T12:49:05;3.57;;;1.73;;
20713;SDS011;10518;50.742;4.226;2022-12-18T12:51:39;5.00;;;2.00;;
20713;SDS011;10518;50.742;4.226;2022-12-18T12:54:11;4.57;;;2.93;;
20713;SDS011;10518;50.742;4.226;2022-12-18T12:56:45;2.30;;;2.10;;
20713;SDS011;10518;50.742;4.226;2022-12-18T12:59:22;3.57;;;2.10;;
20713;SDS011;10518;50.742;4.226;2022-12-18T13:02:22;4.13;;;1.93;;
20713;SDS011;10518;50.742;4.226;2022-12-18T13:05:11;5.80;;;2.67;;
20713;SDS011;10518;50.742;4.226;2022-12-18T13:07:45;3.60;;;1.73;;
20713;SDS011;10518;50.742;4.226;2022-12-18T13:15:44;3.53;;;2.20;;
20713;SDS011;10518;50.742;4.226;2022-12-18T13:18:16;3.97;;;2.20;;
20713;SDS011;10518;50.742;4.226;2022-12-18T13:20:45;3.00;;;1.33;;
20713;SDS011;10518;50.742;4.226;2022-12-18T13:25:48;5.23;;;3.37;;
20713;SDS011;10518;50.742;4.226;2022-12-18T13:30:57;3.47;;;2.23;;
20713;SDS011;10518;50.742;4.226;2022-12-18T13:38:37;4.73;;;3.27;;
20713;SDS011;10518;50.742;4.226;2022-12-18T13:41:20;7.40;;;3.20;;
20713;SDS011;10518;50.742;4.226;2022-12-18T13:43:54;2.40;;;2.07;;
20713;SDS011;10518;50.742;4.226;2022-12-18T13:46:45;5.40;;;1.93;;
20713;SDS011;10518;50.742;4.226;2022-12-18T13:51:39;2.67;;;2.00;;
20713;SDS011;10518;50.742;4.226;2022-12-18T13:54:19;2.83;;;1.73;;
20713;SDS011;10518;50.742;4.226;2022-12-18T13:57:02;3.70;;;2.43;;
20713;SDS011;10518;50.742;4.226;2022-12-18T13:59:35;7.57;;;3.30;;
20713;SDS011;10518;50.742;4.226;2022-12-18T14:02:13;3.33;;;1.93;;
20713;SDS011;10518;50.742;4.226;2022-12-18T14:04:40;9.43;;;3.50;;
20713;SDS011;10518;50.742;4.226;2022-12-18T14:07:28;8.37;;;2.97;;
20713;SDS011;10518;50.742;4.226;2022-12-18T14:09:54;11.27;;;3.10;;
20713;SDS011;10518;50.742;4.226;2022-12-18T14:15:20;13.30;;;3.53;;
20713;SDS011;10518;50.742;4.226;2022-12-18T14:17:54;8.07;;;2.90;;
20713;SDS011;10518;50.742;4.226;2022-12-18T14:20:28;3.53;;;1.97;;
20713;SDS011;10518;50.742;4.226;2022-12-18T14:22:56;6.30;;;2.73;;
20713;SDS011;10518;50.742;4.226;2022-12-18T14:25:26;4.80;;;2.73;;
20713;SDS011;10518;50.742;4.226;2022-12-18T14:28:02;6.20;;;3.10;;
20713;SDS011;10518;50.742;4.226;2022-12-18T14:30:38;3.50;;;2.30;;
20713;SDS011;10518;50.742;4.226;2022-12-18T14:35:58;3.63;;;1.73;;
20713;SDS011;10518;50.742;4.226;2022-12-18T14:41:13;3.07;;;1.67;;
20713;SDS011;10518;50.742;4.226;2022-12-18T14:43:42;4.57;;;2.80;;
20713;SDS011;10518;50.742;4.226;2022-12-18T14:48:54;5.80;;;3.77;;
20713;SDS011;10518;50.742;4.226;2022-12-18T14:51:21;7.43;;;3.40;;
20713;SDS011;10518;50.742;4.226;2022-12-18T14:54:13;5.03;;;2.57;;
20713;SDS011;10518;50.742;4.226;2022-12-18T14:56:48;3.07;;;2.23;;
20713;SDS011;10518;50.742;4.226;2022-12-18T14:59:26;6.63;;;2.57;;
20713;SDS011;10518;50.742;4.226;2022-12-18T15:01:59;4.83;;;2.93;;
20713;SDS011;10518;50.742;4.226;2022-12-18T15:04:41;1.53;;;1.23;;
20713;SDS011;10518;50.742;4.226;2022-12-18T15:07:15;3.80;;;2.57;;
20713;SDS011;10518;50.742;4.226;2022-12-18T15:09:59;7.63;;;2.53;;
20713;SDS011;10518;50.742;4.226;2022-12-18T15:12:32;4.00;;;2.43;;
20713;SDS011;10518;50.742;4.226;2022-12-18T15:14:58;2.67;;;2.43;;
20713;SDS011;10518;50.742;4.226;2022-12-18T15:17:24;9.63;;;2.07;;
20713;SDS011;10518;50.742;4.226;2022-12-18T15:19:51;6.67;;;2.83;;
20713;SDS011;10518;50.742;4.226;2022-12-18T15:24:58;7.97;;;2.93;;
20713;SDS011;10518;50.742;4.226;2022-12-18T15:27:34;9.57;;;2.03;;
20713;SDS011;10518;50.742;4.226;2022-12-18T15:32:35;17.33;;;4.50;;
20713;SDS011;10518;50.742;4.226;2022-12-18T15:37:39;5.63;;;2.43;;
20713;SDS011;10518;50.742;4.226;2022-12-18T15:40:05;2.57;;;2.13;;
20713;SDS011;10518;50.742;4.226;2022-12-18T15:42:31;4.17;;;3.03;;
20713;SDS011;10518;50.742;4.226;2022-12-18T15:45:16;6.60;;;2.70;;
20713;SDS011;10518;50.742;4.226;2022-12-18T15:47:41;7.40;;;3.83;;
20713;SDS011;10518;50.742;4.226;2022-12-18T15:50:07;4.57;;;1.80;;
20713;SDS011;10518;50.742;4.226;2022-12-18T15:52:35;7.10;;;2.80;;
20713;SDS011;10518;50.742;4.226;2022-12-18T15:55:22;7.43;;;2.93;;
20713;SDS011;10518;50.742;4.226;2022-12-18T15:58:08;5.77;;;3.43;;
20713;SDS011;10518;50.742;4.226;2022-12-18T16:00:35;3.27;;;2.97;;
20713;SDS011;10518;50.742;4.226;2022-12-18T16:03:03;4.07;;;2.43;;
20713;SDS011;10518;50.742;4.226;2022-12-18T16:05:29;6.90;;;4.33;;
20713;SDS011;10518;50.742;4.226;2022-12-18T16:07:56;3.47;;;3.13;;
20713;SDS011;10518;50.742;4.226;2022-12-18T16:10:22;4.50;;;3.77;;
20713;SDS011;10518;50.742;4.226;2022-12-18T16:12:48;6.10;;;3.17;;
20713;SDS011;10518;50.742;4.226;2022-12-18T16:15:14;5.03;;;2.27;;
20713;SDS011;10518;50.742;4.226;2022-12-18T16:17:41;7.10;;;4.00;;
20713;SDS011;10518;50.742;4.226;2022-12-18T16:20:18;12.13;;;3.73;;
20713;SDS011;10518;50.742;4.226;2022-12-18T16:22:46;9.30;;;2.27;;
20713;SDS011;10518;50.742;4.226;2022-12-18T16:25:28;6.27;;;3.20;;
20713;SDS011;10518;50.742;4.226;2022-12-18T16:27:54;7.60;;;3.03;;
20713;SDS011;10518;50.742;4.226;2022-12-18T16:30:30;7.00;;;2.37;;
20713;SDS011;10518;50.742;4.226;2022-12-18T16:32:56;4.73;;;1.90;;
20713;SDS011;10518;50.742;4.226;2022-12-18T16:35:23;7.00;;;2.80;;
20713;SDS011;10518;50.742;4.226;2022-12-18T16:37:49;3.60;;;2.10;;
20713;SDS011;10518;50.742;4.226;2022-12-18T16:40:15;4.27;;;2.30;;
20713;SDS011;10518;50.742;4.226;2022-12-18T16:42:42;6.23;;;3.37;;
20713;SDS011;10518;50.742;4.226;2022-12-18T16:45:10;8.43;;;3.30;;
20713;SDS011;10518;50.742;4.226;2022-12-18T16:47:37;8.60;;;3.50;;
20713;SDS011;10518;50.742;4.226;2022-12-18T16:50:03;3.80;;;1.83;;
20713;SDS011;10518;50.742;4.226;2022-12-18T16:52:30;5.37;;;2.33;;
20713;SDS011;10518;50.742;4.226;2022-12-18T16:54:55;6.80;;;2.87;;
20713;SDS011;10518;50.742;4.226;2022-12-18T16:57:21;6.53;;;3.17;;
20713;SDS011;10518;50.742;4.226;2022-12-18T16:59:47;6.80;;;2.77;;